Hanska, Minnesota
Current Conditions -  °F | °C
As of 11:34 AM on Thursday 23 Oct 2014 (Local Time) from KULM Reporting Station
Clear Clear  
Wind Chill: 59°   Ceiling: Unl
Heat Index: 59°   Visibility: 10mi
Dew Point: 52°   Wind: 7mph
Humidity: 77%   Direction: 260°W
Pressure: 30.02"   Gusts: NA
Location:  44.15°N, 94.49°W
Report Text: KULM 231634Z AUTO 26006KT 10SM CLR 15/11 A3002 RMK AO2
Loading
Personal Weather Stations






























Interactive Weather Map
Tropical Storm Tracking
New forecast layout! Learn more

10-Day Weather Forecast

Advertisements
Track Severe Weather on mobile